sensor_id;sensor_type;location;lat;lon;timestamp;P1;durP1;ratioP1;P2;durP2;ratioP2
2680;SDS011;1350;42.134;24.708;2022-12-07T00:01:18;66.95;;;35.05;;
2680;SDS011;1350;42.134;24.708;2022-12-07T00:03:47;52.92;;;33.17;;
2680;SDS011;1350;42.134;24.708;2022-12-07T00:06:15;70.45;;;37.22;;
2680;SDS011;1350;42.134;24.708;2022-12-07T00:08:43;62.03;;;32.58;;
2680;SDS011;1350;42.134;24.708;2022-12-07T00:11:11;56.85;;;32.85;;
2680;SDS011;1350;42.134;24.708;2022-12-07T00:13:40;56.40;;;31.10;;
2680;SDS011;1350;42.134;24.708;2022-12-07T00:16:09;53.25;;;28.88;;
2680;SDS011;1350;42.134;24.708;2022-12-07T00:18:37;50.95;;;29.85;;
2680;SDS011;1350;42.134;24.708;2022-12-07T00:21:05;58.55;;;30.52;;
2680;SDS011;1350;42.134;24.708;2022-12-07T00:23:35;60.65;;;32.33;;
2680;SDS011;1350;42.134;24.708;2022-12-07T00:26:05;44.28;;;26.25;;
2680;SDS011;1350;42.134;24.708;2022-12-07T00:28:33;53.10;;;28.25;;
2680;SDS011;1350;42.134;24.708;2022-12-07T00:31:00;43.50;;;28.48;;
2680;SDS011;1350;42.134;24.708;2022-12-07T00:33:30;37.45;;;24.58;;
2680;SDS011;1350;42.134;24.708;2022-12-07T00:35:57;34.20;;;22.90;;
2680;SDS011;1350;42.134;24.708;2022-12-07T00:38:27;39.75;;;22.98;;
2680;SDS011;1350;42.134;24.708;2022-12-07T00:40:55;37.15;;;23.00;;
2680;SDS011;1350;42.134;24.708;2022-12-07T00:43:23;47.10;;;28.92;;
2680;SDS011;1350;42.134;24.708;2022-12-07T00:45:49;56.05;;;39.15;;
2680;SDS011;1350;42.134;24.708;2022-12-07T00:48:16;58.75;;;39.58;;
2680;SDS011;1350;42.134;24.708;2022-12-07T00:50:44;70.43;;;46.63;;
2680;SDS011;1350;42.134;24.708;2022-12-07T00:53:11;65.50;;;41.58;;
2680;SDS011;1350;42.134;24.708;2022-12-07T00:55:38;62.25;;;40.35;;
2680;SDS011;1350;42.134;24.708;2022-12-07T00:58:05;77.82;;;45.58;;
2680;SDS011;1350;42.134;24.708;2022-12-07T01:00:32;70.97;;;44.80;;
2680;SDS011;1350;42.134;24.708;2022-12-07T01:02:59;63.92;;;44.63;;
2680;SDS011;1350;42.134;24.708;2022-12-07T01:05:26;67.70;;;45.05;;
2680;SDS011;1350;42.134;24.708;2022-12-07T01:07:54;66.85;;;40.83;;
2680;SDS011;1350;42.134;24.708;2022-12-07T01:10:21;60.53;;;43.28;;
2680;SDS011;1350;42.134;24.708;2022-12-07T01:12:47;55.90;;;38.35;;
2680;SDS011;1350;42.134;24.708;2022-12-07T01:15:14;52.88;;;38.08;;
2680;SDS011;1350;42.134;24.708;2022-12-07T01:17:41;53.92;;;35.55;;
2680;SDS011;1350;42.134;24.708;2022-12-07T01:20:08;48.72;;;31.38;;
2680;SDS011;1350;42.134;24.708;2022-12-07T01:22:36;48.67;;;34.60;;
2680;SDS011;1350;42.134;24.708;2022-12-07T01:25:05;45.53;;;31.42;;
2680;SDS011;1350;42.134;24.708;2022-12-07T01:27:33;48.67;;;31.65;;
2680;SDS011;1350;42.134;24.708;2022-12-07T01:30:00;55.63;;;32.63;;
2680;SDS011;1350;42.134;24.708;2022-12-07T01:32:28;47.33;;;31.17;;
2680;SDS011;1350;42.134;24.708;2022-12-07T01:34:55;53.35;;;33.67;;
2680;SDS011;1350;42.134;24.708;2022-12-07T01:37:22;43.92;;;29.75;;
2680;SDS011;1350;42.134;24.708;2022-12-07T01:39:49;50.80;;;32.15;;
2680;SDS011;1350;42.134;24.708;2022-12-07T01:42:17;46.53;;;28.08;;
2680;SDS011;1350;42.134;24.708;2022-12-07T01:47:50;41.90;;;29.05;;
2680;SDS011;1350;42.134;24.708;2022-12-07T01:50:19;49.88;;;29.40;;
2680;SDS011;1350;42.134;24.708;2022-12-07T01:52:50;41.50;;;25.20;;
2680;SDS011;1350;42.134;24.708;2022-12-07T01:55:19;39.95;;;26.15;;
2680;SDS011;1350;42.134;24.708;2022-12-07T01:57:48;38.53;;;25.52;;
2680;SDS011;1350;42.134;24.708;2022-12-07T02:00:19;35.35;;;24.30;;
2680;SDS011;1350;42.134;24.708;2022-12-07T02:02:47;37.55;;;24.95;;
2680;SDS011;1350;42.134;24.708;2022-12-07T02:05:17;38.25;;;23.52;;
2680;SDS011;1350;42.134;24.708;2022-12-07T02:07:44;33.35;;;21.92;;
2680;SDS011;1350;42.134;24.708;2022-12-07T02:10:14;37.45;;;21.90;;
2680;SDS011;1350;42.134;24.708;2022-12-07T02:12:41;34.80;;;21.98;;
2680;SDS011;1350;42.134;24.708;2022-12-07T02:15:11;32.72;;;21.77;;
2680;SDS011;1350;42.134;24.708;2022-12-07T02:17:40;42.30;;;23.40;;
2680;SDS011;1350;42.134;24.708;2022-12-07T02:20:17;44.00;;;23.77;;
2680;SDS011;1350;42.134;24.708;2022-12-07T02:26:01;44.25;;;24.70;;
2680;SDS011;1350;42.134;24.708;2022-12-07T02:28:59;40.00;;;20.92;;
2680;SDS011;1350;42.134;24.708;2022-12-07T02:31:37;38.80;;;24.73;;
2680;SDS011;1350;42.134;24.708;2022-12-07T02:34:11;38.28;;;22.90;;
2680;SDS011;1350;42.134;24.708;2022-12-07T02:36:43;43.15;;;24.88;;
2680;SDS011;1350;42.134;24.708;2022-12-07T02:39:17;43.17;;;25.60;;
2680;SDS011;1350;42.134;24.708;2022-12-07T02:41:47;49.60;;;26.48;;
2680;SDS011;1350;42.134;24.708;2022-12-07T02:44:19;45.78;;;22.55;;
2680;SDS011;1350;42.134;24.708;2022-12-07T02:46:50;36.97;;;20.52;;
2680;SDS011;1350;42.134;24.708;2022-12-07T02:49:21;34.28;;;21.63;;
2680;SDS011;1350;42.134;24.708;2022-12-07T02:51:50;38.17;;;22.58;;
2680;SDS011;1350;42.134;24.708;2022-12-07T02:54:19;36.95;;;21.83;;
2680;SDS011;1350;42.134;24.708;2022-12-07T02:56:49;40.90;;;20.85;;
2680;SDS011;1350;42.134;24.708;2022-12-07T02:59:22;32.58;;;20.58;;
2680;SDS011;1350;42.134;24.708;2022-12-07T03:02:01;33.25;;;20.48;;
2680;SDS011;1350;42.134;24.708;2022-12-07T03:04:40;26.95;;;17.25;;
2680;SDS011;1350;42.134;24.708;2022-12-07T03:07:17;30.70;;;17.73;;
2680;SDS011;1350;42.134;24.708;2022-12-07T03:09:49;29.85;;;17.63;;
2680;SDS011;1350;42.134;24.708;2022-12-07T03:12:25;31.52;;;17.65;;
2680;SDS011;1350;42.134;24.708;2022-12-07T03:15:00;43.03;;;20.33;;
2680;SDS011;1350;42.134;24.708;2022-12-07T03:17:30;36.10;;;20.77;;
2680;SDS011;1350;42.134;24.708;2022-12-07T03:20:02;33.75;;;18.92;;
2680;SDS011;1350;42.134;24.708;2022-12-07T03:22:33;32.50;;;20.08;;
2680;SDS011;1350;42.134;24.708;2022-12-07T03:25:03;29.77;;;20.50;;
2680;SDS011;1350;42.134;24.708;2022-12-07T03:27:33;38.47;;;20.42;;
2680;SDS011;1350;42.134;24.708;2022-12-07T03:30:05;33.38;;;21.17;;
2680;SDS011;1350;42.134;24.708;2022-12-07T03:32:36;36.58;;;18.77;;
2680;SDS011;1350;42.134;24.708;2022-12-07T03:35:07;30.38;;;19.58;;
2680;SDS011;1350;42.134;24.708;2022-12-07T03:37:42;27.75;;;17.35;;
2680;SDS011;1350;42.134;24.708;2022-12-07T03:40:14;33.15;;;19.27;;
2680;SDS011;1350;42.134;24.708;2022-12-07T03:42:49;37.33;;;20.83;;
2680;SDS011;1350;42.134;24.708;2022-12-07T03:45:19;35.13;;;17.50;;
2680;SDS011;1350;42.134;24.708;2022-12-07T03:47:53;30.08;;;16.92;;
2680;SDS011;1350;42.134;24.708;2022-12-07T03:50:31;29.95;;;19.63;;
2680;SDS011;1350;42.134;24.708;2022-12-07T03:53:05;36.25;;;20.90;;
2680;SDS011;1350;42.134;24.708;2022-12-07T03:55:39;36.03;;;19.73;;
2680;SDS011;1350;42.134;24.708;2022-12-07T03:58:10;37.63;;;18.63;;
2680;SDS011;1350;42.134;24.708;2022-12-07T04:00:41;49.08;;;21.15;;
2680;SDS011;1350;42.134;24.708;2022-12-07T04:03:08;37.00;;;19.48;;
2680;SDS011;1350;42.134;24.708;2022-12-07T04:05:36;33.13;;;20.15;;
2680;SDS011;1350;42.134;24.708;2022-12-07T04:08:03;30.58;;;18.67;;
2680;SDS011;1350;42.134;24.708;2022-12-07T04:10:30;27.42;;;19.17;;
2680;SDS011;1350;42.134;24.708;2022-12-07T04:12:57;30.67;;;17.77;;
2680;SDS011;1350;42.134;24.708;2022-12-07T04:15:23;32.65;;;19.08;;
2680;SDS011;1350;42.134;24.708;2022-12-07T04:17:51;37.78;;;19.40;;
2680;SDS011;1350;42.134;24.708;2022-12-07T04:20:19;34.10;;;18.40;;
2680;SDS011;1350;42.134;24.708;2022-12-07T04:22:46;34.67;;;18.42;;
2680;SDS011;1350;42.134;24.708;2022-12-07T04:25:12;30.48;;;17.50;;
2680;SDS011;1350;42.134;24.708;2022-12-07T04:27:39;27.35;;;17.10;;
2680;SDS011;1350;42.134;24.708;2022-12-07T04:30:06;28.83;;;17.67;;
2680;SDS011;1350;42.134;24.708;2022-12-07T04:32:34;29.85;;;17.65;;
2680;SDS011;1350;42.134;24.708;2022-12-07T04:35:02;27.63;;;17.08;;
2680;SDS011;1350;42.134;24.708;2022-12-07T04:37:29;25.58;;;16.35;;
2680;SDS011;1350;42.134;24.708;2022-12-07T04:39:56;26.60;;;17.40;;
2680;SDS011;1350;42.134;24.708;2022-12-07T04:42:23;33.05;;;18.17;;
2680;SDS011;1350;42.134;24.708;2022-12-07T04:44:49;37.88;;;18.88;;
2680;SDS011;1350;42.134;24.708;2022-12-07T04:47:17;40.25;;;16.70;;
2680;SDS011;1350;42.134;24.708;2022-12-07T04:49:43;44.25;;;18.67;;
2680;SDS011;1350;42.134;24.708;2022-12-07T04:52:11;28.75;;;16.98;;
2680;SDS011;1350;42.134;24.708;2022-12-07T04:54:38;79.47;;;48.70;;
2680;SDS011;1350;42.134;24.708;2022-12-07T04:57:05;38.33;;;21.85;;
2680;SDS011;1350;42.134;24.708;2022-12-07T04:59:32;49.45;;;19.05;;
2680;SDS011;1350;42.134;24.708;2022-12-07T05:01:58;32.08;;;19.58;;
2680;SDS011;1350;42.134;24.708;2022-12-07T05:04:25;32.05;;;18.85;;
2680;SDS011;1350;42.134;24.708;2022-12-07T05:06:52;36.33;;;20.63;;
2680;SDS011;1350;42.134;24.708;2022-12-07T05:09:21;35.70;;;19.42;;
2680;SDS011;1350;42.134;24.708;2022-12-07T05:11:48;31.05;;;17.08;;
2680;SDS011;1350;42.134;24.708;2022-12-07T05:14:15;30.27;;;20.20;;
2680;SDS011;1350;42.134;24.708;2022-12-07T05:16:43;30.13;;;17.42;;
2680;SDS011;1350;42.134;24.708;2022-12-07T05:19:12;43.53;;;25.42;;
2680;SDS011;1350;42.134;24.708;2022-12-07T05:21:38;38.65;;;19.27;;
2680;SDS011;1350;42.134;24.708;2022-12-07T05:24:06;36.17;;;18.25;;
2680;SDS011;1350;42.134;24.708;2022-12-07T05:26:35;30.33;;;18.60;;
2680;SDS011;1350;42.134;24.708;2022-12-07T05:29:03;24.52;;;16.88;;
2680;SDS011;1350;42.134;24.708;2022-12-07T05:31:30;39.15;;;18.35;;
2680;SDS011;1350;42.134;24.708;2022-12-07T05:33:57;33.97;;;17.52;;
2680;SDS011;1350;42.134;24.708;2022-12-07T05:36:23;39.03;;;21.15;;
2680;SDS011;1350;42.134;24.708;2022-12-07T05:38:51;35.42;;;18.90;;
2680;SDS011;1350;42.134;24.708;2022-12-07T05:41:18;36.35;;;22.35;;
2680;SDS011;1350;42.134;24.708;2022-12-07T05:44:09;55.58;;;36.95;;
2680;SDS011;1350;42.134;24.708;2022-12-07T05:46:36;102.35;;;71.07;;
2680;SDS011;1350;42.134;24.708;2022-12-07T05:49:03;47.92;;;20.48;;
2680;SDS011;1350;42.134;24.708;2022-12-07T05:51:29;39.72;;;20.38;;
2680;SDS011;1350;42.134;24.708;2022-12-07T05:53:56;30.50;;;17.55;;
2680;SDS011;1350;42.134;24.708;2022-12-07T05:56:23;28.67;;;19.02;;
2680;SDS011;1350;42.134;24.708;2022-12-07T05:58:51;54.45;;;21.88;;
2680;SDS011;1350;42.134;24.708;2022-12-07T06:01:37;53.13;;;22.25;;
2680;SDS011;1350;42.134;24.708;2022-12-07T06:04:04;41.90;;;21.90;;
2680;SDS011;1350;42.134;24.708;2022-12-07T06:06:30;45.60;;;19.52;;
2680;SDS011;1350;42.134;24.708;2022-12-07T06:08:57;45.00;;;20.17;;
2680;SDS011;1350;42.134;24.708;2022-12-07T06:11:24;49.67;;;22.67;;
2680;SDS011;1350;42.134;24.708;2022-12-07T06:14:08;58.22;;;23.30;;
2680;SDS011;1350;42.134;24.708;2022-12-07T06:16:36;46.63;;;21.08;;
2680;SDS011;1350;42.134;24.708;2022-12-07T06:19:03;33.53;;;20.95;;
2680;SDS011;1350;42.134;24.708;2022-12-07T06:21:30;68.30;;;22.17;;
2680;SDS011;1350;42.134;24.708;2022-12-07T06:23:56;37.40;;;19.83;;
2680;SDS011;1350;42.134;24.708;2022-12-07T06:26:23;37.28;;;19.70;;
2680;SDS011;1350;42.134;24.708;2022-12-07T06:28:50;31.67;;;19.65;;
2680;SDS011;1350;42.134;24.708;2022-12-07T06:31:17;48.83;;;20.67;;
2680;SDS011;1350;42.134;24.708;2022-12-07T06:33:45;50.17;;;22.95;;
2680;SDS011;1350;42.134;24.708;2022-12-07T06:36:12;72.10;;;27.63;;
2680;SDS011;1350;42.134;24.708;2022-12-07T06:38:38;57.67;;;28.05;;
2680;SDS011;1350;42.134;24.708;2022-12-07T06:41:05;37.10;;;22.33;;
2680;SDS011;1350;42.134;24.708;2022-12-07T06:43:32;35.92;;;21.30;;
2680;SDS011;1350;42.134;24.708;2022-12-07T06:45:59;48.80;;;21.98;;
2680;SDS011;1350;42.134;24.708;2022-12-07T06:48:26;50.20;;;24.73;;
2680;SDS011;1350;42.134;24.708;2022-12-07T06:50:54;56.55;;;29.42;;
2680;SDS011;1350;42.134;24.708;2022-12-07T06:53:21;66.93;;;37.47;;
2680;SDS011;1350;42.134;24.708;2022-12-07T06:55:48;54.33;;;32.08;;
2680;SDS011;1350;42.134;24.708;2022-12-07T06:58:15;64.45;;;34.10;;
2680;SDS011;1350;42.134;24.708;2022-12-07T07:00:42;60.72;;;30.27;;
2680;SDS011;1350;42.134;24.708;2022-12-07T07:03:09;59.22;;;27.90;;
2680;SDS011;1350;42.134;24.708;2022-12-07T07:05:35;67.40;;;26.35;;
2680;SDS011;1350;42.134;24.708;2022-12-07T07:08:04;37.92;;;22.63;;
2680;SDS011;1350;42.134;24.708;2022-12-07T07:10:31;63.88;;;37.42;;
2680;SDS011;1350;42.134;24.708;2022-12-07T07:12:57;50.08;;;26.38;;
2680;SDS011;1350;42.134;24.708;2022-12-07T07:15:24;37.97;;;23.42;;
2680;SDS011;1350;42.134;24.708;2022-12-07T07:17:51;52.70;;;25.85;;
2680;SDS011;1350;42.134;24.708;2022-12-07T07:20:17;42.58;;;22.15;;
2680;SDS011;1350;42.134;24.708;2022-12-07T07:22:44;46.78;;;24.25;;
2680;SDS011;1350;42.134;24.708;2022-12-07T07:25:12;34.55;;;23.85;;
2680;SDS011;1350;42.134;24.708;2022-12-07T07:27:39;45.45;;;23.25;;
2680;SDS011;1350;42.134;24.708;2022-12-07T07:30:06;52.50;;;24.00;;
2680;SDS011;1350;42.134;24.708;2022-12-07T07:32:34;43.22;;;23.83;;
2680;SDS011;1350;42.134;24.708;2022-12-07T07:35:01;42.72;;;26.38;;
2680;SDS011;1350;42.134;24.708;2022-12-07T07:37:27;41.85;;;25.30;;
2680;SDS011;1350;42.134;24.708;2022-12-07T07:39:54;64.88;;;28.52;;
2680;SDS011;1350;42.134;24.708;2022-12-07T07:42:22;55.50;;;25.52;;
2680;SDS011;1350;42.134;24.708;2022-12-07T07:44:49;39.53;;;24.95;;
2680;SDS011;1350;42.134;24.708;2022-12-07T07:47:16;40.47;;;22.42;;
2680;SDS011;1350;42.134;24.708;2022-12-07T07:49:43;30.10;;;20.88;;
2680;SDS011;1350;42.134;24.708;2022-12-07T07:52:09;33.60;;;21.65;;
2680;SDS011;1350;42.134;24.708;2022-12-07T07:54:36;37.20;;;22.60;;
2680;SDS011;1350;42.134;24.708;2022-12-07T07:57:03;47.13;;;26.90;;
2680;SDS011;1350;42.134;24.708;2022-12-07T07:59:31;45.85;;;22.63;;
2680;SDS011;1350;42.134;24.708;2022-12-07T08:01:58;30.70;;;22.63;;
2680;SDS011;1350;42.134;24.708;2022-12-07T08:04:24;44.35;;;20.52;;
2680;SDS011;1350;42.134;24.708;2022-12-07T08:06:51;36.85;;;23.98;;
2680;SDS011;1350;42.134;24.708;2022-12-07T08:09:18;30.85;;;21.73;;
2680;SDS011;1350;42.134;24.708;2022-12-07T08:11:45;35.15;;;21.30;;
2680;SDS011;1350;42.134;24.708;2022-12-07T08:14:11;38.15;;;22.92;;
2680;SDS011;1350;42.134;24.708;2022-12-07T08:16:39;32.95;;;21.27;;
2680;SDS011;1350;42.134;24.708;2022-12-07T08:19:06;33.28;;;20.52;;
2680;SDS011;1350;42.134;24.708;2022-12-07T08:21:33;34.28;;;21.80;;
2680;SDS011;1350;42.134;24.708;2022-12-07T08:24:00;34.10;;;21.80;;
2680;SDS011;1350;42.134;24.708;2022-12-07T08:26:26;36.08;;;21.25;;
2680;SDS011;1350;42.134;24.708;2022-12-07T08:28:53;31.95;;;19.02;;
2680;SDS011;1350;42.134;24.708;2022-12-07T08:31:20;34.92;;;21.15;;
2680;SDS011;1350;42.134;24.708;2022-12-07T08:33:48;47.13;;;30.30;;
2680;SDS011;1350;42.134;24.708;2022-12-07T08:36:15;31.75;;;21.48;;
2680;SDS011;1350;42.134;24.708;2022-12-07T08:38:42;31.63;;;20.50;;
2680;SDS011;1350;42.134;24.708;2022-12-07T08:41:09;32.78;;;21.00;;
2680;SDS011;1350;42.134;24.708;2022-12-07T08:43:36;33.97;;;21.80;;
2680;SDS011;1350;42.134;24.708;2022-12-07T08:46:08;35.90;;;22.30;;
2680;SDS011;1350;42.134;24.708;2022-12-07T08:48:38;38.53;;;21.63;;
2680;SDS011;1350;42.134;24.708;2022-12-07T08:51:08;42.77;;;24.17;;
2680;SDS011;1350;42.134;24.708;2022-12-07T08:53:37;32.35;;;22.75;;
2680;SDS011;1350;42.134;24.708;2022-12-07T08:56:06;42.53;;;22.97;;
2680;SDS011;1350;42.134;24.708;2022-12-07T08:58:34;40.20;;;24.50;;
2680;SDS011;1350;42.134;24.708;2022-12-07T09:01:02;48.60;;;26.50;;
2680;SDS011;1350;42.134;24.708;2022-12-07T09:03:28;36.93;;;24.60;;
2680;SDS011;1350;42.134;24.708;2022-12-07T09:05:55;37.57;;;23.10;;
2680;SDS011;1350;42.134;24.708;2022-12-07T09:08:26;38.37;;;24.77;;
2680;SDS011;1350;42.134;24.708;2022-12-07T09:10:56;36.27;;;26.17;;
2680;SDS011;1350;42.134;24.708;2022-12-07T09:13:23;37.83;;;25.20;;
2680;SDS011;1350;42.134;24.708;2022-12-07T09:15:50;40.40;;;24.77;;
2680;SDS011;1350;42.134;24.708;2022-12-07T09:18:16;38.27;;;23.73;;
2680;SDS011;1350;42.134;24.708;2022-12-07T09:20:43;36.27;;;24.87;;
2680;SDS011;1350;42.134;24.708;2022-12-07T09:23:10;35.87;;;24.93;;
2680;SDS011;1350;42.134;24.708;2022-12-07T09:25:38;38.90;;;25.97;;
2680;SDS011;1350;42.134;24.708;2022-12-07T09:28:05;35.90;;;26.07;;
2680;SDS011;1350;42.134;24.708;2022-12-07T09:30:32;46.37;;;28.90;;
2680;SDS011;1350;42.134;24.708;2022-12-07T09:32:58;61.07;;;46.83;;
2680;SDS011;1350;42.134;24.708;2022-12-07T09:35:25;36.53;;;25.40;;
2680;SDS011;1350;42.134;24.708;2022-12-07T09:37:52;33.30;;;23.73;;
2680;SDS011;1350;42.134;24.708;2022-12-07T09:40:20;35.33;;;25.30;;
2680;SDS011;1350;42.134;24.708;2022-12-07T09:42:51;35.17;;;25.77;;
2680;SDS011;1350;42.134;24.708;2022-12-07T09:45:21;37.97;;;24.40;;
2680;SDS011;1350;42.134;24.708;2022-12-07T09:47:51;40.10;;;24.60;;
2680;SDS011;1350;42.134;24.708;2022-12-07T09:50:19;36.87;;;22.80;;
2680;SDS011;1350;42.134;24.708;2022-12-07T09:52:50;33.67;;;21.80;;
2680;SDS011;1350;42.134;24.708;2022-12-07T09:55:19;35.57;;;24.33;;
2680;SDS011;1350;42.134;24.708;2022-12-07T09:57:54;47.07;;;27.70;;
2680;SDS011;1350;42.134;24.708;2022-12-07T10:00:22;38.87;;;27.10;;
2680;SDS011;1350;42.134;24.708;2022-12-07T10:02:51;38.63;;;26.10;;
2680;SDS011;1350;42.134;24.708;2022-12-07T10:05:22;38.90;;;26.27;;
2680;SDS011;1350;42.134;24.708;2022-12-07T10:07:52;34.90;;;24.63;;
2680;SDS011;1350;42.134;24.708;2022-12-07T10:10:20;43.67;;;26.83;;
2680;SDS011;1350;42.134;24.708;2022-12-07T10:12:57;44.20;;;27.17;;
2680;SDS011;1350;42.134;24.708;2022-12-07T10:15:42;39.87;;;25.63;;
2680;SDS011;1350;42.134;24.708;2022-12-07T10:18:25;40.33;;;25.33;;
2680;SDS011;1350;42.134;24.708;2022-12-07T10:21:01;40.47;;;26.00;;
2680;SDS011;1350;42.134;24.708;2022-12-07T10:23:30;50.80;;;27.40;;
2680;SDS011;1350;42.134;24.708;2022-12-07T10:25:57;37.90;;;24.90;;
2680;SDS011;1350;42.134;24.708;2022-12-07T10:28:27;43.07;;;28.83;;
2680;SDS011;1350;42.134;24.708;2022-12-07T10:31:00;39.33;;;24.70;;
2680;SDS011;1350;42.134;24.708;2022-12-07T10:33:31;36.70;;;20.97;;
2680;SDS011;1350;42.134;24.708;2022-12-07T10:36:15;36.50;;;20.80;;
2680;SDS011;1350;42.134;24.708;2022-12-07T10:38:44;32.90;;;21.90;;
2680;SDS011;1350;42.134;24.708;2022-12-07T10:41:12;34.00;;;23.17;;
2680;SDS011;1350;42.134;24.708;2022-12-07T10:43:47;31.70;;;24.10;;
2680;SDS011;1350;42.134;24.708;2022-12-07T10:46:36;33.07;;;23.07;;
2680;SDS011;1350;42.134;24.708;2022-12-07T10:49:23;38.23;;;23.97;;
2680;SDS011;1350;42.134;24.708;2022-12-07T10:52:08;31.47;;;21.73;;
2680;SDS011;1350;42.134;24.708;2022-12-07T10:54:44;36.80;;;23.87;;
2680;SDS011;1350;42.134;24.708;2022-12-07T10:57:27;35.13;;;23.60;;
2680;SDS011;1350;42.134;24.708;2022-12-07T11:00:09;38.60;;;24.50;;
2680;SDS011;1350;42.134;24.708;2022-12-07T11:02:46;37.80;;;22.40;;
2680;SDS011;1350;42.134;24.708;2022-12-07T11:05:26;33.33;;;22.50;;
2680;SDS011;1350;42.134;24.708;2022-12-07T11:07:59;38.87;;;24.70;;
2680;SDS011;1350;42.134;24.708;2022-12-07T11:10:35;41.30;;;27.50;;
2680;SDS011;1350;42.134;24.708;2022-12-07T11:13:14;42.17;;;23.90;;
2680;SDS011;1350;42.134;24.708;2022-12-07T11:15:55;38.47;;;21.90;;
2680;SDS011;1350;42.134;24.708;2022-12-07T11:18:39;35.03;;;22.33;;
2680;SDS011;1350;42.134;24.708;2022-12-07T11:21:16;35.07;;;21.70;;
2680;SDS011;1350;42.134;24.708;2022-12-07T11:23:52;49.33;;;25.43;;
2680;SDS011;1350;42.134;24.708;2022-12-07T11:26:32;37.63;;;21.57;;
2680;SDS011;1350;42.134;24.708;2022-12-07T11:32:04;46.10;;;22.10;;
2680;SDS011;1350;42.134;24.708;2022-12-07T11:34:42;40.37;;;21.50;;
2680;SDS011;1350;42.134;24.708;2022-12-07T11:37:20;30.20;;;19.93;;
2680;SDS011;1350;42.134;24.708;2022-12-07T11:39:51;22.30;;;14.63;;
2680;SDS011;1350;42.134;24.708;2022-12-07T11:42:24;36.70;;;19.60;;
2680;SDS011;1350;42.134;24.708;2022-12-07T11:44:55;26.53;;;16.47;;
2680;SDS011;1350;42.134;24.708;2022-12-07T11:47:30;22.90;;;15.70;;
2680;SDS011;1350;42.134;24.708;2022-12-07T11:50:05;26.50;;;17.20;;
2680;SDS011;1350;42.134;24.708;2022-12-07T11:52:45;36.40;;;16.80;;
2680;SDS011;1350;42.134;24.708;2022-12-07T11:55:19;23.70;;;15.40;;
2680;SDS011;1350;42.134;24.708;2022-12-07T11:57:58;25.77;;;15.85;;
2680;SDS011;1350;42.134;24.708;2022-12-07T12:00:30;30.15;;;16.33;;
2680;SDS011;1350;42.134;24.708;2022-12-07T12:03:01;31.90;;;17.70;;
2680;SDS011;1350;42.134;24.708;2022-12-07T12:05:35;28.70;;;16.90;;
2680;SDS011;1350;42.134;24.708;2022-12-07T12:08:04;27.83;;;17.10;;
2680;SDS011;1350;42.134;24.708;2022-12-07T12:10:43;26.10;;;17.77;;
2680;SDS011;1350;42.134;24.708;2022-12-07T12:16:35;34.10;;;18.50;;
2680;SDS011;1350;42.134;24.708;2022-12-07T12:19:19;29.85;;;17.00;;
2680;SDS011;1350;42.134;24.708;2022-12-07T12:21:54;26.33;;;16.13;;
2680;SDS011;1350;42.134;24.708;2022-12-07T12:24:25;30.20;;;18.70;;
2680;SDS011;1350;42.134;24.708;2022-12-07T12:26:53;38.95;;;20.77;;
2680;SDS011;1350;42.134;24.708;2022-12-07T12:29:27;35.35;;;19.38;;
2680;SDS011;1350;42.134;24.708;2022-12-07T12:32:04;33.97;;;18.58;;
2680;SDS011;1350;42.134;24.708;2022-12-07T12:34:39;25.83;;;16.08;;
2680;SDS011;1350;42.134;24.708;2022-12-07T12:58:28;26.00;;;17.58;;
2680;SDS011;1350;42.134;24.708;2022-12-07T13:04:00;27.55;;;16.90;;
2680;SDS011;1350;42.134;24.708;2022-12-07T13:06:35;34.05;;;21.00;;
2680;SDS011;1350;42.134;24.708;2022-12-07T13:09:04;28.08;;;19.67;;
2680;SDS011;1350;42.134;24.708;2022-12-07T13:11:46;32.95;;;20.77;;
2680;SDS011;1350;42.134;24.708;2022-12-07T13:17:07;34.53;;;20.10;;
2680;SDS011;1350;42.134;24.708;2022-12-07T13:25:19;31.02;;;17.67;;
2680;SDS011;1350;42.134;24.708;2022-12-07T13:27:55;36.70;;;19.35;;
2680;SDS011;1350;42.134;24.708;2022-12-07T13:30:27;32.00;;;20.10;;
2680;SDS011;1350;42.134;24.708;2022-12-07T13:32:56;32.50;;;19.10;;
2680;SDS011;1350;42.134;24.708;2022-12-07T13:35:28;33.67;;;16.48;;
2680;SDS011;1350;42.134;24.708;2022-12-07T13:37:59;26.00;;;16.95;;
2680;SDS011;1350;42.134;24.708;2022-12-07T13:40:29;31.25;;;17.10;;
2680;SDS011;1350;42.134;24.708;2022-12-07T13:43:00;28.30;;;17.65;;
2680;SDS011;1350;42.134;24.708;2022-12-07T13:45:28;28.45;;;18.95;;
2680;SDS011;1350;42.134;24.708;2022-12-07T13:48:15;37.97;;;19.25;;
2680;SDS011;1350;42.134;24.708;2022-12-07T13:50:47;35.05;;;20.60;;
2680;SDS011;1350;42.134;24.708;2022-12-07T13:53:21;30.75;;;16.35;;
2680;SDS011;1350;42.134;24.708;2022-12-07T13:55:48;37.60;;;23.40;;
2680;SDS011;1350;42.134;24.708;2022-12-07T13:58:16;30.15;;;17.67;;
2680;SDS011;1350;42.134;24.708;2022-12-07T14:00:42;23.73;;;14.68;;
2680;SDS011;1350;42.134;24.708;2022-12-07T14:03:26;30.63;;;15.93;;
2680;SDS011;1350;42.134;24.708;2022-12-07T14:09:06;29.83;;;16.45;;
2680;SDS011;1350;42.134;24.708;2022-12-07T14:11:34;29.60;;;18.17;;
2680;SDS011;1350;42.134;24.708;2022-12-07T14:14:02;33.78;;;18.02;;
2680;SDS011;1350;42.134;24.708;2022-12-07T14:16:30;32.58;;;19.38;;
2680;SDS011;1350;42.134;24.708;2022-12-07T14:19:00;26.52;;;17.45;;
2680;SDS011;1350;42.134;24.708;2022-12-07T14:21:28;29.85;;;17.20;;
2680;SDS011;1350;42.134;24.708;2022-12-07T14:24:04;28.88;;;16.48;;
2680;SDS011;1350;42.134;24.708;2022-12-07T14:26:37;34.58;;;18.85;;
2680;SDS011;1350;42.134;24.708;2022-12-07T14:29:21;34.20;;;20.67;;
2680;SDS011;1350;42.134;24.708;2022-12-07T14:31:55;31.38;;;19.73;;
2680;SDS011;1350;42.134;24.708;2022-12-07T14:34:23;37.42;;;18.40;;
2680;SDS011;1350;42.134;24.708;2022-12-07T14:36:50;43.35;;;23.27;;
2680;SDS011;1350;42.134;24.708;2022-12-07T14:39:18;32.58;;;18.13;;
2680;SDS011;1350;42.134;24.708;2022-12-07T14:41:45;35.15;;;20.80;;
2680;SDS011;1350;42.134;24.708;2022-12-07T14:44:18;35.97;;;20.50;;
2680;SDS011;1350;42.134;24.708;2022-12-07T14:46:46;42.35;;;20.75;;
2680;SDS011;1350;42.134;24.708;2022-12-07T14:49:14;36.97;;;21.17;;
2680;SDS011;1350;42.134;24.708;2022-12-07T14:51:40;44.90;;;21.58;;
2680;SDS011;1350;42.134;24.708;2022-12-07T14:54:12;34.70;;;20.60;;
2680;SDS011;1350;42.134;24.708;2022-12-07T14:56:43;44.88;;;22.98;;
2680;SDS011;1350;42.134;24.708;2022-12-07T14:59:11;40.72;;;21.23;;
2680;SDS011;1350;42.134;24.708;2022-12-07T15:01:38;43.53;;;21.90;;
2680;SDS011;1350;42.134;24.708;2022-12-07T15:04:05;42.25;;;20.45;;
2680;SDS011;1350;42.134;24.708;2022-12-07T15:06:31;39.92;;;22.13;;
2680;SDS011;1350;42.134;24.708;2022-12-07T15:08:58;43.08;;;23.98;;
2680;SDS011;1350;42.134;24.708;2022-12-07T15:11:25;68.50;;;31.23;;
2680;SDS011;1350;42.134;24.708;2022-12-07T15:13:53;51.10;;;31.83;;
2680;SDS011;1350;42.134;24.708;2022-12-07T15:16:36;62.15;;;28.88;;
2680;SDS011;1350;42.134;24.708;2022-12-07T15:19:06;41.10;;;25.60;;
2680;SDS011;1350;42.134;24.708;2022-12-07T15:21:36;43.97;;;25.08;;
2680;SDS011;1350;42.134;24.708;2022-12-07T15:24:03;39.45;;;26.08;;
2680;SDS011;1350;42.134;24.708;2022-12-07T15:26:30;60.83;;;24.70;;
2680;SDS011;1350;42.134;24.708;2022-12-07T15:28:58;41.95;;;24.00;;
2680;SDS011;1350;42.134;24.708;2022-12-07T15:31:25;37.35;;;24.95;;
2680;SDS011;1350;42.134;24.708;2022-12-07T15:33:52;47.22;;;27.15;;
2680;SDS011;1350;42.134;24.708;2022-12-07T15:36:19;55.45;;;25.60;;
2680;SDS011;1350;42.134;24.708;2022-12-07T15:38:48;52.70;;;25.92;;